View Sortable Currents For Network
ASOSAWOSCoCoRaHSCOOPDCPISUSM
SchoolNetOtherSCANMy FavoritesBy StateRWIS
RWIS SurfaceRWIS TrafficRWIS SoilBy NWS WFO

Current AWOS Conditions

** This page will automatically refresh every five minutes.
Sorted by: (Ob Time)     Click on a column to sort it.

Add ID: Name: Ob Time   Wind [knots]   Rainfall
Temp (Hi / Lo) DewP Feels RH% Dir Speed Peak Gust
@ Time
Alti Vsby Hour Today
ORCOrange City08:15 AM 70(70/63) 66 72 87 200 79 @ 07:10 AM 29.85 10 0
OXVKnoxville08:15 AM 70(70/64) 64 71 81 140 1010 @ 08:15 AM 29.88 10 0
RDKRED OAK08:15 AM 72(72/64) 68 74 87 130 411 @ 03:20 AM 29.84 10 0 0.04
SHLSHELDON08:15 AM 68(68/63) 66 70 93 170 715 @ 07:55 AM 29.84 10 0
OLZOELWEIN08:15 AM 70(70/57) 66 72 87 140 66 @ 05:15 AM 29.93 10 0
MUTMUSCATINE08:15 AM 68(68/59) 68 100 0 05 @ 01:20 AM 29.94 9 0
FSWFORT MADISON08:15 AM 72(72/61) 66 81 0 00 @ 06:00 PM 29.94 10 0
LRJLE MARS08:15 AM 70(70/63) 66 72 87 190 69 @ 06:40 AM 29.84 10 0
BNWBOONE MUNI08:15 AM 68(68/63) 64 69 87 120 88 @ 08:15 AM 29.88 10 0
SLBStorm Lake08:15 AM 68(68/63) 64 69 87 160 717 @ 03:40 AM 29.86 10 0
CBFCOUNCIL BLUFFS08:15 AM 70(70/66) -38 63 1 140 615 @ 02:50 AM 29.82 10 0
CINCARROLL08:15 AM 70(70/63) 66 72 87 140 6G1111 @ 08:15 AM 29.85 10 0
EBSWebster City08:15 AM 68(68/63) 64 69 87 110 511 @ 06:55 AM 29.87 10 0 0.0001
AWGWASHINGTON08:15 AM 70(70/59) 70 73 100 150 46 @ 07:10 AM 29.93 10 0
HPTHampton08:15 AM 70(70/57) 68 93 0 04 @ 05:55 AM 29.92 10 0
AIOATLANTIC08:15 AM 72(72/64) 66 73 81 160 56 @ 07:35 AM 29.84 10 0
FFLFAIRFIELD08:15 AM 72(72/59) 64 73 76 140 56 @ 07:55 AM 29.91 10 0
ADUAUDUBON08:15 AM 70(70/63) 64 71 81 160 78 @ 08:10 AM 29.86 10 0
CSQCRESTON08:15 AM 70(70/63) 66 72 87 150 1013 @ 05:00 AM 29.87 10 0
FXYForest City08:15 AM 68(68/63) 66 70 93 200 46 @ 07:25 AM 29.93 7 0.02 0.02
CKPCherokee08:15 AM 69(69/61) 66 90 0 06 @ 01:10 AM 29.85 10 0
ICLCLARINDA08:15 AM 73(73/63) 68 84 0 05 @ 02:55 AM 29.85 10 0
HNRHARLAN08:15 AM M(0/0) M M M @ 06:00 PM 0
IFAIowa Falls08:15 AM 69(69/60) 66 71 90 160 77 @ 08:15 AM 29.92 10 0
GGIGrinnell08:15 AM 70(70/60) 64 71 81 140 77 @ 08:10 AM 29.92 10 0
EOKKEOKUK MUNI08:15 AM 72(72/61) 68 87 0 04 @ 05:00 AM 29.92 10 0
I75Osceola08:15 AM 71(71/64) 65 72 81 130 88 @ 08:15 AM 29.88 10 0
PROPerry08:15 AM 72(72/64) 68 74 87 140 89 @ 08:00 AM 29.87 10 0
TVKCenterville08:15 AM 72(72/61) 72 100 0 04 @ 08:05 AM 29.91 10 0
PEAPELLA08:15 AM 71(71/63) 64 72 79 130 66 @ 07:00 AM 29.91 10 0
VTIVINTON08:15 AM 71(71/58) 64 72 79 140 44 @ 05:20 AM 29.93 10 0
OOAOskaloosa08:15 AM 70(70/61) 66 72 87 140 77 @ 08:15 AM 29.9 10 0
DNSDENISON08:15 AM 70(70/64) 66 72 87 180 821 @ 05:50 AM 29.85 10 0
AXAALGONA08:15 AM 68(68/64) 64 69 87 150 1217 @ 08:00 AM 29.89 10 0
CNCCHARITON08:15 AM 70(70/63) 66 72 87 140 78 @ 07:40 AM 29.88 10 0
MXOMONTICELLO MUNI08:15 AM 70(70/55) 66 87 0 04 @ 06:00 AM 29.93 10 0
DEHDECORAH08:15 AM 72(72/61) 66 73 81 34 @ 12:20 AM 29.93 10 0
CAVCLARION08:15 AM 66(68/64) 64 67 93 170 813 @ 08:10 AM 29.91 10 0
SDASHENANDOAH MUNI08:15 AM 72(72/64) 68 74 87 90 410 @ 03:35 AM 29.83 10 0
TNUNEWTON MUNI08:15 AM 70(70/61) 66 72 87 140 77 @ 04:35 AM 29.91 10 0
IIBINDEPENDENCE08:15 AM 69(75/56) 64 70 84 130 46 @ 05:20 AM 29.92 10 0
CCYCHARLES CITY08:15 AM 68(68/61) 64 69 87 170 68 @ 07:35 AM 29.93 10 0
MPZMOUNT PLEASANT08:04 AM 70(70/59) 68 93 0 05 @ 05:15 AM 29.93 10 0 0.0001
CWICLINTON07:56 AM 67(67/55) 63 87 0 07 @ 03:20 AM 29.94 10 0
FODFORT DODGE07:56 AM 66(68/63) 64 67 93 120 810 @ 08:00 AM 29.88 10 0 0.01